createdAt,value
2023-01-17T00:02:17.676Z,99.27
2023-01-17T00:05:04.944Z,98.94
2023-01-17T00:07:52.200Z,99.21
2023-01-17T00:10:25.295Z,99.85
2023-01-17T00:12:56.055Z,98.29
2023-01-17T00:15:25.386Z,98.85
2023-01-17T00:17:53.996Z,96.93
2023-01-17T00:20:43.303Z,99.02
2023-01-17T00:23:38.782Z,97.86
2023-01-17T00:26:12.212Z,95.40
2023-01-17T00:28:41.745Z,96.85
2023-01-17T00:31:13.952Z,96.63
2023-01-17T00:33:42.360Z,97.14
2023-01-17T00:36:11.207Z,96.38
2023-01-17T00:38:39.892Z,95.63
2023-01-17T00:41:10.511Z,96.09
2023-01-17T00:43:57.154Z,98.07
2023-01-17T00:46:44.472Z,97.39
2023-01-17T00:49:31.170Z,96.92
2023-01-17T00:52:17.981Z,96.10
2023-01-17T00:55:04.587Z,99.35
2023-01-17T00:57:51.240Z,97.33
2023-01-17T01:00:38.112Z,98.63
2023-01-17T01:03:31.215Z,96.48
2023-01-17T01:06:17.534Z,97.90
2023-01-17T01:09:04.350Z,96.65
2023-01-17T01:11:50.958Z,95.98
2023-01-17T01:14:37.753Z,94.85
2023-01-17T01:17:24.327Z,95.91
2023-01-17T01:20:11.107Z,98.40
2023-01-17T01:22:57.913Z,99.73
2023-01-17T01:25:44.672Z,100.00
2023-01-17T01:28:32.913Z,97.73
2023-01-17T01:31:25.660Z,99.87
2023-01-17T01:33:53.954Z,100.00
2023-01-17T01:36:22.417Z,96.26
2023-01-17T01:38:50.558Z,98.77
2023-01-17T01:41:18.588Z,100.00
2023-01-17T01:43:49.946Z,100.00
2023-01-17T01:46:25.923Z,100.00
2023-01-17T01:49:00.053Z,100.00
2023-01-17T01:51:39.244Z,99.31
2023-01-17T01:54:14.874Z,97.46
2023-01-17T01:56:43.183Z,97.74
2023-01-17T01:59:14.356Z,97.36
2023-01-17T02:01:42.694Z,98.11
2023-01-17T02:04:11.281Z,97.08
2023-01-17T02:06:42.632Z,96.24
2023-01-17T02:09:12.824Z,95.79
2023-01-17T02:11:41.643Z,95.96
2023-01-17T02:14:14.679Z,94.12
2023-01-17T02:17:41.582Z,97.26
2023-01-17T02:20:28.060Z,96.01
2023-01-17T02:23:12.443Z,98.02
2023-01-17T02:26:10.770Z,97.63
2023-01-17T02:29:20.407Z,100.00
2023-01-17T02:32:39.251Z,100.00
2023-01-17T02:35:20.681Z,100.00
2023-01-17T02:38:15.844Z,100.00
2023-01-17T02:40:54.036Z,100.00
2023-01-17T02:43:23.924Z,100.00
2023-01-17T02:45:52.308Z,100.00
2023-01-17T02:48:24.185Z,100.00
2023-01-17T02:51:20.087Z,100.00
2023-01-17T02:54:11.054Z,100.00
2023-01-17T02:57:14.209Z,100.00
2023-01-17T02:59:54.196Z,99.03
2023-01-17T03:02:28.688Z,100.00
2023-01-17T03:05:11.039Z,99.86
2023-01-17T03:07:40.483Z,99.14
2023-01-17T03:10:09.028Z,99.49
2023-01-17T03:12:38.987Z,96.88
2023-01-17T03:15:13.115Z,96.99
2023-01-17T03:17:45.801Z,97.41
2023-01-17T03:20:14.286Z,98.08
2023-01-17T03:22:42.297Z,97.70
2023-01-17T03:25:10.212Z,96.13
2023-01-17T03:27:38.606Z,96.27
2023-01-17T03:30:07.612Z,97.99
2023-01-17T03:32:35.619Z,98.54
2023-01-17T03:35:04.043Z,97.62
2023-01-17T03:37:31.973Z,96.41
2023-01-17T03:39:59.892Z,98.10
2023-01-17T03:42:28.130Z,96.59
2023-01-17T03:44:56.156Z,93.30
2023-01-17T03:47:24.126Z,96.37
2023-01-17T03:49:52.446Z,96.10
2023-01-17T03:52:20.325Z,95.11
2023-01-17T03:54:48.752Z,94.61
2023-01-17T03:57:16.937Z,93.54
2023-01-17T03:59:46.263Z,94.99
2023-01-17T04:02:14.418Z,92.99
2023-01-17T04:04:42.933Z,94.74
2023-01-17T04:07:10.836Z,94.18
2023-01-17T04:09:38.701Z,96.05
2023-01-17T04:12:07.233Z,95.17
2023-01-17T04:14:35.592Z,95.20
2023-01-17T04:17:04.397Z,94.75
2023-01-17T04:19:34.963Z,94.59
2023-01-17T04:22:03.622Z,95.15
2023-01-17T04:24:31.579Z,95.49
2023-01-17T04:27:00.023Z,93.66
2023-01-17T04:29:27.898Z,95.10
2023-01-17T04:31:55.970Z,96.44
2023-01-17T04:34:24.317Z,93.23
2023-01-17T04:36:52.233Z,96.44
2023-01-17T04:39:20.184Z,97.99
2023-01-17T04:41:48.476Z,97.18
2023-01-17T04:44:16.314Z,98.25
2023-01-17T04:46:44.205Z,94.52
2023-01-17T04:49:12.558Z,97.54
2023-01-17T04:51:40.632Z,98.72
2023-01-17T04:54:08.512Z,96.57
2023-01-17T04:56:36.903Z,97.35
2023-01-17T04:59:04.881Z,98.37
2023-01-17T05:01:32.966Z,98.13
2023-01-17T05:04:01.246Z,98.57
2023-01-17T05:06:29.322Z,99.07
2023-01-17T05:08:57.374Z,99.35
2023-01-17T05:11:25.638Z,100.00
2023-01-17T05:13:53.589Z,100.00
2023-01-17T05:16:21.524Z,100.00
2023-01-17T05:18:53.672Z,100.00
2023-01-17T05:21:22.557Z,99.83
2023-01-17T05:23:51.088Z,97.81
2023-01-17T05:26:19.241Z,98.78
2023-01-17T05:28:47.261Z,98.26
2023-01-17T05:31:15.576Z,98.35
2023-01-17T05:33:43.659Z,97.35
2023-01-17T05:36:11.875Z,96.79
2023-01-17T05:38:40.119Z,95.80
2023-01-17T05:41:07.933Z,97.78
2023-01-17T05:43:35.841Z,97.00
2023-01-17T05:46:04.204Z,95.28
2023-01-17T05:48:32.261Z,98.86
2023-01-17T05:51:01.765Z,95.50
2023-01-17T05:53:30.152Z,94.83
2023-01-17T05:55:57.969Z,96.39
2023-01-17T05:58:26.047Z,98.90
2023-01-17T06:00:56.064Z,95.95
2023-01-17T06:03:25.039Z,97.49
2023-01-17T06:05:53.353Z,100.00
2023-01-17T06:08:21.742Z,97.12
2023-01-17T06:10:50.182Z,97.69
2023-01-17T06:13:22.087Z,96.67
2023-01-17T06:15:50.437Z,99.32
2023-01-17T06:18:19.070Z,100.00
2023-01-17T06:20:53.072Z,100.00
2023-01-17T06:23:22.263Z,99.76
2023-01-17T06:25:51.811Z,100.00
2023-01-17T06:28:21.943Z,98.23
2023-01-17T06:30:50.337Z,99.25
2023-01-17T06:33:18.334Z,100.00
2023-01-17T06:35:54.128Z,99.12
2023-01-17T06:38:22.373Z,97.34
2023-01-17T06:40:50.295Z,98.42
2023-01-17T06:43:18.257Z,99.62
2023-01-17T06:45:46.565Z,100.00
2023-01-17T06:48:14.564Z,100.00
2023-01-17T06:50:42.550Z,96.43
2023-01-17T06:53:11.011Z,98.69
2023-01-17T06:55:40.564Z,97.37
2023-01-17T06:58:10.460Z,95.21
2023-01-17T07:00:40.749Z,95.11
2023-01-17T07:03:20.329Z,96.51
2023-01-17T07:05:49.043Z,95.50
2023-01-17T07:08:18.049Z,95.11
2023-01-17T07:10:47.073Z,94.03
2023-01-17T07:13:15.537Z,97.42
2023-01-17T07:15:43.435Z,95.76
2023-01-17T07:18:11.393Z,96.11
2023-01-17T07:20:39.645Z,96.85
2023-01-17T07:23:09.693Z,98.52
2023-01-17T07:25:37.871Z,97.94
2023-01-17T07:28:06.193Z,94.79
2023-01-17T07:30:35.322Z,94.26
2023-01-17T07:33:03.404Z,94.35
2023-01-17T07:35:31.805Z,93.00
2023-01-17T07:37:59.833Z,92.21
2023-01-17T07:40:28.340Z,93.54
2023-01-17T07:43:02.877Z,93.07
2023-01-17T07:45:33.249Z,90.51
2023-01-17T07:48:01.637Z,92.10
2023-01-17T07:50:29.553Z,89.96
2023-01-17T07:52:57.462Z,91.10
2023-01-17T07:55:25.721Z,94.12
2023-01-17T07:57:57.392Z,92.66
2023-01-17T08:00:31.253Z,91.01
2023-01-17T08:03:01.422Z,92.37
2023-01-17T08:05:31.170Z,92.52
2023-01-17T08:07:59.495Z,91.62
2023-01-17T08:10:27.522Z,87.78
2023-01-17T08:12:55.712Z,84.46
2023-01-17T08:15:26.736Z,81.12
2023-01-17T08:17:54.752Z,82.08
2023-01-17T08:20:22.783Z,82.44
2023-01-17T08:22:55.722Z,85.37
2023-01-17T08:25:25.505Z,83.90
2023-01-17T08:27:57.685Z,77.67
2023-01-17T08:30:26.049Z,76.99
2023-01-17T08:32:54.681Z,81.63
2023-01-17T08:35:22.892Z,81.26
2023-01-17T08:37:56.328Z,80.68
2023-01-17T08:40:24.956Z,75.90
2023-01-17T08:42:57.047Z,84.88
2023-01-17T08:45:25.526Z,83.76
2023-01-17T08:47:54.111Z,80.63
2023-01-17T08:50:22.177Z,79.98
2023-01-17T08:52:51.415Z,78.47
2023-01-17T08:55:19.658Z,76.07
2023-01-17T08:57:48.062Z,71.30
2023-01-17T09:00:16.786Z,68.21
2023-01-17T09:02:44.728Z,66.95
2023-01-17T09:05:13.782Z,63.94
2023-01-17T09:07:42.163Z,61.35
2023-01-17T09:10:11.106Z,56.67
2023-01-17T09:12:40.651Z,58.26
2023-01-17T09:15:11.372Z,59.67
2023-01-17T09:17:39.293Z,57.68
2023-01-17T09:20:08.147Z,56.54
2023-01-17T09:22:37.884Z,54.11
2023-01-17T09:25:09.239Z,54.05
2023-01-17T09:30:05.354Z,56.96
2023-01-17T09:32:35.381Z,54.92
2023-01-17T09:35:09.003Z,54.36
2023-01-17T09:37:38.256Z,56.00
2023-01-17T09:40:07.596Z,55.84
2023-01-17T09:42:38.471Z,54.50
2023-01-17T09:45:17.405Z,56.65
2023-01-17T09:47:53.355Z,59.48
2023-01-17T09:50:21.957Z,58.40
2023-01-17T09:52:50.478Z,55.62
2023-01-17T09:55:21.364Z,51.47
2023-01-17T09:58:31.210Z,50.93
2023-01-17T10:00:59.380Z,55.22
2023-01-17T10:03:44.514Z,49.64
2023-01-17T10:06:43.347Z,47.31
2023-01-17T10:09:46.881Z,53.67
2023-01-17T10:12:41.414Z,48.65
2023-01-17T10:15:47.201Z,48.10
2023-01-17T10:18:30.736Z,44.30
2023-01-17T10:21:14.039Z,47.42
2023-01-17T10:24:11.103Z,42.78
2023-01-17T10:26:41.719Z,42.75
2023-01-17T10:29:15.922Z,39.96
2023-01-17T10:31:55.515Z,42.13
2023-01-17T10:34:35.160Z,41.87
2023-01-17T10:37:28.298Z,41.13
2023-01-17T10:39:58.703Z,38.72
2023-01-17T10:42:32.272Z,35.80
2023-01-17T10:45:06.714Z,32.82
2023-01-17T10:47:37.533Z,30.82
2023-01-17T10:50:06.051Z,34.66
2023-01-17T10:52:37.621Z,37.49
2023-01-17T10:55:49.139Z,40.08
2023-01-17T10:58:17.769Z,37.87
2023-01-17T11:00:48.920Z,37.49
2023-01-17T11:03:22.367Z,38.91
2023-01-17T11:06:25.391Z,36.10
2023-01-17T11:08:55.139Z,38.17
2023-01-17T11:11:32.169Z,31.96
2023-01-17T11:14:08.193Z,37.53
2023-01-17T11:16:37.769Z,37.31
2023-01-17T11:19:36.261Z,36.44
2023-01-17T11:22:08.401Z,37.70
2023-01-17T11:24:42.432Z,36.18
2023-01-17T11:27:28.025Z,33.45
2023-01-17T11:30:20.743Z,34.07
2023-01-17T11:33:30.141Z,31.46
2023-01-17T11:35:59.417Z,32.84
2023-01-17T11:38:27.780Z,33.73
2023-01-17T11:41:15.985Z,34.39
2023-01-17T11:44:00.457Z,33.34
2023-01-17T11:46:30.675Z,30.94
2023-01-17T11:49:02.540Z,31.35
2023-01-17T11:51:33.188Z,36.48
2023-01-17T11:54:16.905Z,36.44
2023-01-17T11:56:46.627Z,33.60
2023-01-17T11:59:30.310Z,33.02
2023-01-17T12:02:17.756Z,31.85
2023-01-17T12:04:52.535Z,31.25
2023-01-17T12:08:03.610Z,33.69
2023-01-17T12:10:42.451Z,35.11
2023-01-17T12:13:35.606Z,36.38
2023-01-17T12:16:31.395Z,35.74
2023-01-17T12:19:28.799Z,35.46
2023-01-17T12:22:04.531Z,38.14
2023-01-17T12:24:45.924Z,44.19
2023-01-17T12:27:21.577Z,44.76
2023-01-17T12:30:31.113Z,46.18
2023-01-17T12:33:46.898Z,48.17
2023-01-17T12:36:31.978Z,49.20
2023-01-17T12:39:18.177Z,49.62
2023-01-17T12:41:57.848Z,49.08
2023-01-17T12:45:06.221Z,48.87
2023-01-17T12:47:45.565Z,49.73
2023-01-17T12:50:29.241Z,50.17
2023-01-17T12:53:19.598Z,48.19
2023-01-17T12:56:09.304Z,51.52
2023-01-17T12:58:49.151Z,50.12
2023-01-17T13:01:26.152Z,49.24
2023-01-17T13:04:19.954Z,52.34
2023-01-17T13:06:59.137Z,52.57
2023-01-17T13:09:39.168Z,54.07
2023-01-17T13:12:13.000Z,53.30
2023-01-17T13:14:41.491Z,54.38
2023-01-17T13:17:18.251Z,54.18
2023-01-17T13:19:56.462Z,54.23
2023-01-17T13:22:27.360Z,55.81
2023-01-17T13:25:26.728Z,55.91
2023-01-17T13:27:56.080Z,55.38
2023-01-17T13:30:51.554Z,56.97
2023-01-17T13:33:52.231Z,55.68
2023-01-17T13:37:06.567Z,57.40
2023-01-17T13:39:37.612Z,57.91
2023-01-17T13:42:30.504Z,62.99
2023-01-17T13:44:58.981Z,60.45
2023-01-17T13:47:38.559Z,61.72
2023-01-17T13:50:38.776Z,61.30
2023-01-17T13:53:36.552Z,61.61
2023-01-17T13:56:20.031Z,60.88
2023-01-17T13:58:52.119Z,62.74
2023-01-17T14:01:23.742Z,61.89
2023-01-17T14:03:52.409Z,61.49
2023-01-17T14:06:45.126Z,62.83
2023-01-17T14:09:15.018Z,63.26
2023-01-17T14:12:10.881Z,63.63
2023-01-17T14:14:44.611Z,65.42
2023-01-17T14:17:28.401Z,66.67
2023-01-17T14:20:26.660Z,66.67
2023-01-17T14:23:03.732Z,66.55
2023-01-17T14:25:39.687Z,67.95
2023-01-17T14:28:31.649Z,67.89
2023-01-17T14:31:10.466Z,67.38
2023-01-17T14:33:42.713Z,69.13
2023-01-17T14:36:25.218Z,69.08
2023-01-17T14:38:53.509Z,68.08
2023-01-17T14:41:28.077Z,67.72
2023-01-17T14:43:56.616Z,67.94
2023-01-17T14:46:32.619Z,67.53
2023-01-17T14:49:02.880Z,66.93
2023-01-17T14:51:35.409Z,67.19
2023-01-17T14:54:13.928Z,67.55
2023-01-17T14:56:43.710Z,69.27
2023-01-17T14:59:22.147Z,68.81
2023-01-17T15:02:06.287Z,67.70
2023-01-17T15:04:39.897Z,66.82
2023-01-17T15:07:16.708Z,67.46
2023-01-17T15:09:45.384Z,67.04
2023-01-17T15:12:14.801Z,67.93
2023-01-17T15:14:46.910Z,67.89
2023-01-17T15:17:19.669Z,67.11
2023-01-17T15:19:51.693Z,67.29
2023-01-17T15:22:20.411Z,68.91
2023-01-17T15:24:49.566Z,67.76
2023-01-17T15:27:22.087Z,68.44
2023-01-17T15:29:50.594Z,69.05
2023-01-17T15:32:23.923Z,66.99
2023-01-17T15:34:52.671Z,67.30
2023-01-17T15:37:54.195Z,66.73
2023-01-17T15:40:24.955Z,67.67
2023-01-17T15:43:01.372Z,67.55
2023-01-17T15:45:33.937Z,67.31
2023-01-17T15:48:46.706Z,66.80
2023-01-17T15:51:30.779Z,67.37
2023-01-17T15:54:00.697Z,66.57
2023-01-17T15:56:33.647Z,67.49
2023-01-17T15:59:22.899Z,67.97
2023-01-17T16:01:58.510Z,68.94
2023-01-17T16:04:29.890Z,68.43
2023-01-17T16:07:19.944Z,67.48
2023-01-17T16:09:49.195Z,67.63
2023-01-17T16:12:17.871Z,67.84
2023-01-17T16:15:06.192Z,67.38
2023-01-17T16:17:36.432Z,66.01
2023-01-17T16:20:07.660Z,68.01
2023-01-17T16:22:36.204Z,67.62
2023-01-17T16:25:22.105Z,67.96
2023-01-17T16:27:53.924Z,69.57
2023-01-17T16:30:22.643Z,67.39
2023-01-17T16:32:51.394Z,66.62
2023-01-17T16:35:23.779Z,68.25
2023-01-17T16:37:54.662Z,68.03
2023-01-17T16:40:26.771Z,69.54
2023-01-17T16:42:59.190Z,69.64
2023-01-17T16:45:28.983Z,69.77
2023-01-17T16:47:57.629Z,70.34
2023-01-17T16:50:25.989Z,72.52
2023-01-17T16:52:55.101Z,72.28
2023-01-17T16:55:25.238Z,73.52
2023-01-17T16:57:57.252Z,76.69
2023-01-17T17:00:27.042Z,77.57
2023-01-17T17:02:55.207Z,75.52
2023-01-17T17:05:23.345Z,76.28
2023-01-17T17:07:53.121Z,78.21
2023-01-17T17:10:25.407Z,80.52
2023-01-17T17:12:54.262Z,81.12
2023-01-17T17:15:22.503Z,82.68
2023-01-17T17:17:51.408Z,81.51
2023-01-17T17:20:19.989Z,82.60
2023-01-17T17:22:52.038Z,84.25
2023-01-17T17:25:20.541Z,84.89
2023-01-17T17:27:48.618Z,84.31
2023-01-17T17:30:18.843Z,85.76
2023-01-17T17:32:48.878Z,88.53
2023-01-17T17:35:17.129Z,89.93
2023-01-17T17:37:45.259Z,87.09
2023-01-17T17:40:13.759Z,87.84
2023-01-17T17:42:43.321Z,89.50
2023-01-17T17:45:11.592Z,87.19
2023-01-17T17:47:40.156Z,86.42
2023-01-17T17:50:09.055Z,89.84
2023-01-17T17:52:37.212Z,89.88
2023-01-17T17:55:06.226Z,88.23
2023-01-17T17:57:34.305Z,89.43
2023-01-17T18:00:03.023Z,88.24
2023-01-17T18:02:35.752Z,87.89
2023-01-17T18:05:04.824Z,87.05
2023-01-17T18:07:33.151Z,87.42
2023-01-17T18:10:01.295Z,88.58
2023-01-17T18:12:29.867Z,88.86
2023-01-17T18:14:57.933Z,89.85
2023-01-17T18:17:26.121Z,90.73
2023-01-17T18:19:54.996Z,91.51
2023-01-17T18:22:23.143Z,91.04
2023-01-17T18:24:51.298Z,92.12
2023-01-17T18:27:20.212Z,93.45
2023-01-17T18:29:49.512Z,91.66
2023-01-17T18:32:17.524Z,92.24
2023-01-17T18:34:46.129Z,91.96
2023-01-17T18:37:14.324Z,91.64
2023-01-17T18:39:43.205Z,93.03
2023-01-17T18:42:12.282Z,93.72
2023-01-17T18:44:40.732Z,92.56
2023-01-17T18:47:11.162Z,90.96
2023-01-17T18:49:39.711Z,91.92
2023-01-17T18:52:09.481Z,93.00
2023-01-17T18:54:37.572Z,93.42
2023-01-17T18:57:06.088Z,94.00
2023-01-17T18:59:34.234Z,93.76
2023-01-17T19:02:02.290Z,94.67
2023-01-17T19:04:34.221Z,95.38
2023-01-17T19:07:02.324Z,94.17
2023-01-17T19:09:32.432Z,94.08
2023-01-17T19:12:00.543Z,94.95
2023-01-17T19:14:28.759Z,96.00
2023-01-17T19:16:57.792Z,95.14
2023-01-17T19:19:25.919Z,94.99
2023-01-17T19:21:54.260Z,95.31
2023-01-17T19:24:22.752Z,95.83
2023-01-17T19:26:54.323Z,94.54
2023-01-17T19:29:22.881Z,97.34
2023-01-17T19:31:51.023Z,95.43
2023-01-17T19:34:20.480Z,97.06
2023-01-17T19:36:49.019Z,96.38
2023-01-17T19:39:17.165Z,94.32
2023-01-17T19:41:45.679Z,95.02
2023-01-17T19:44:15.105Z,94.79
2023-01-17T19:46:44.499Z,95.99
2023-01-17T19:49:12.673Z,94.46
2023-01-17T19:51:41.141Z,94.29
2023-01-17T19:54:09.392Z,95.86
2023-01-17T19:56:38.729Z,95.79
2023-01-17T19:59:09.061Z,95.12
2023-01-17T20:01:37.480Z,94.68
2023-01-17T20:04:06.060Z,94.76
2023-01-17T20:06:36.025Z,93.99
2023-01-17T20:09:05.595Z,95.83
2023-01-17T20:11:34.443Z,94.83
2023-01-17T20:14:03.566Z,96.32
2023-01-17T20:16:32.737Z,93.56
2023-01-17T20:19:03.022Z,92.22
2023-01-17T20:21:31.836Z,93.63
2023-01-17T20:24:03.445Z,93.15
2023-01-17T20:26:36.498Z,92.56
2023-01-17T20:29:12.542Z,90.64
2023-01-17T20:31:41.745Z,89.43
2023-01-17T20:34:12.364Z,91.39
2023-01-17T20:36:44.623Z,92.03
2023-01-17T20:39:14.743Z,94.02
2023-01-17T20:41:45.853Z,95.07
2023-01-17T20:44:15.651Z,93.16
2023-01-17T20:46:43.853Z,91.03
2023-01-17T20:49:15.583Z,90.95
2023-01-17T20:51:45.465Z,93.68
2023-01-17T20:54:16.411Z,92.90
2023-01-17T20:56:47.696Z,92.61
2023-01-17T20:59:18.792Z,92.51
2023-01-17T21:01:47.590Z,90.98
2023-01-17T21:04:16.924Z,93.63
2023-01-17T21:06:45.599Z,94.76
2023-01-17T21:09:15.516Z,93.74
2023-01-17T21:11:43.842Z,93.75
2023-01-17T21:14:12.071Z,93.16
2023-01-17T21:16:40.778Z,92.16
2023-01-17T21:19:12.293Z,91.38
2023-01-17T21:21:41.144Z,91.15
2023-01-17T21:24:09.372Z,90.72
2023-01-17T21:26:39.062Z,91.46
2023-01-17T21:29:08.358Z,88.67
2023-01-17T21:31:37.054Z,91.00
2023-01-17T21:34:07.649Z,90.54
2023-01-17T21:36:41.323Z,90.61
2023-01-17T21:39:18.523Z,90.33
2023-01-17T21:41:49.750Z,90.68
2023-01-17T21:44:20.616Z,91.73
2023-01-17T21:46:55.113Z,90.54
2023-01-17T21:49:24.243Z,89.55
2023-01-17T21:51:55.800Z,89.95
2023-01-17T21:54:46.717Z,89.37
2023-01-17T21:57:40.030Z,89.01
2023-01-17T22:00:10.838Z,88.71
2023-01-17T22:02:40.311Z,88.64
2023-01-17T22:05:09.829Z,89.16
2023-01-17T22:07:39.285Z,89.04
2023-01-17T22:10:07.866Z,88.89
2023-01-17T22:12:36.351Z,87.85
2023-01-17T22:15:04.890Z,87.88
2023-01-17T22:17:33.130Z,86.57
2023-01-17T22:20:01.613Z,89.15
2023-01-17T22:22:32.836Z,89.49
2023-01-17T22:25:01.300Z,89.72
2023-01-17T22:27:29.864Z,88.16
2023-01-17T22:29:58.092Z,88.62
2023-01-17T22:32:26.550Z,88.55
2023-01-17T22:34:54.659Z,87.61
2023-01-17T22:37:22.779Z,88.30
2023-01-17T22:39:51.211Z,88.13
2023-01-17T22:42:19.174Z,87.00
2023-01-17T22:44:47.979Z,88.04
2023-01-17T22:47:16.351Z,91.20
2023-01-17T22:49:44.393Z,90.59
2023-01-17T22:52:12.438Z,89.93
2023-01-17T22:54:40.917Z,91.24
2023-01-17T22:57:08.896Z,89.84
2023-01-17T22:59:36.937Z,90.25
2023-01-17T23:02:05.321Z,94.23
2023-01-17T23:04:33.412Z,90.72
2023-01-17T23:07:01.389Z,92.64
2023-01-17T23:09:29.953Z,92.56
2023-01-17T23:11:58.126Z,91.96
2023-01-17T23:14:55.980Z,89.36
2023-01-17T23:17:43.672Z,88.58
2023-01-17T23:20:12.112Z,88.72
2023-01-17T23:22:40.641Z,87.58
2023-01-17T23:25:11.316Z,87.77
2023-01-17T23:28:04.054Z,88.80
2023-01-17T23:30:37.699Z,87.20
2023-01-17T23:33:08.081Z,84.02
2023-01-17T23:35:42.185Z,83.58
2023-01-17T23:38:29.016Z,82.91
2023-01-17T23:41:22.998Z,87.31
2023-01-17T23:43:55.722Z,87.27
2023-01-17T23:46:25.630Z,82.30
2023-01-17T23:48:55.235Z,87.66
2023-01-17T23:51:23.859Z,90.63
2023-01-17T23:53:57.608Z,87.16
2023-01-17T23:56:26.236Z,83.22
2023-01-17T23:58:54.291Z,84.93
